Time;durP1;ratioP1;P1;durP2;ratioP2;P2;SDS_P1;SDS_P2;PMS_P1;PMS_P2;Temp;Humidity;BMP_temperature;BMP_pressure;BME280_temperature;BME280_humidity;BME280_pressure;Samples;Min_cycle;Max_cycle;Signal;HPM_P1;HPM_P2
2023/09/12 00:01:41;;;;;;;25.20;21.50;;;;;;;21.09;97.90;101050.75;3595377;39;20279;-67
2023/09/12 00:04:06;;;;;;;25.45;21.63;;;;;;;21.09;98.06;101053.47;3586810;39;20315;-65
2023/09/12 00:06:32;;;;;;;23.50;20.75;;;;;;;21.10;97.46;101052.47;3594199;39;20059;-67
2023/09/12 00:08:58;;;;;;;23.77;21.27;;;;;;;21.10;97.81;101052.47;3591980;39;20059;-65
2023/09/12 00:11:25;;;;;;;26.15;21.80;;;;;;;21.07;97.73;101051.91;3592192;39;20070;-65
2023/09/12 00:13:52;;;;;;;23.42;20.40;;;;;;;21.08;98.38;101056.34;3592814;39;20429;-65
2023/09/12 00:16:17;;;;;;;26.17;21.30;;;;;;;21.05;97.44;101060.25;3592863;39;20054;-67
2023/09/12 00:18:43;;;;;;;25.98;22.23;;;;;;;20.97;97.79;101056.63;3595676;39;20364;-65
2023/09/12 00:21:09;;;;;;;24.52;20.88;;;;;;;20.92;98.00;101057.06;3595653;39;20066;-66
2023/09/12 00:23:35;;;;;;;26.15;22.30;;;;;;;20.91;98.52;101052.63;3593797;39;20056;-66
2023/09/12 00:26:01;;;;;;;26.88;21.88;;;;;;;20.81;98.63;101049.13;3592511;39;20091;-65
2023/09/12 00:28:27;;;;;;;25.80;22.13;;;;;;;20.79;98.94;101048.41;3592125;39;20052;-67
2023/09/12 00:30:53;;;;;;;25.58;22.83;;;;;;;20.81;99.52;101060.91;3593063;39;20371;-68
2023/09/12 00:33:18;;;;;;;27.77;21.77;;;;;;;20.80;99.37;101059.16;3592976;39;20058;-66
2023/09/12 00:35:45;;;;;;;28.05;22.40;;;;;;;20.56;99.42;101021.56;3585049;39;20107;-66
2023/09/12 00:38:10;;;;;;;24.88;21.38;;;;;;;20.47;99.17;101021.59;3592522;39;20067;-68
2023/09/12 00:40:37;;;;;;;28.50;22.33;;;;;;;20.68;100.00;101054.97;3591937;39;20055;-66
2023/09/12 00:43:03;;;;;;;25.23;22.52;;;;;;;20.67;99.80;101057.84;3586250;39;21442;-66
2023/09/12 00:45:29;;;;;;;25.27;21.75;;;;;;;20.63;100.00;101055.41;3593373;39;20070;-66
2023/09/12 00:48:00;;;;;;;26.90;22.52;;;;;;;20.59;99.62;101053.16;3587842;39;20067;-66
2023/09/12 00:50:27;;;;;;;24.48;21.30;;;;;;;20.57;99.68;101039.66;3583686;39;20067;-66
2023/09/12 00:52:54;;;;;;;26.23;21.40;;;;;;;20.51;99.61;101034.81;3591454;39;20326;-68
2023/09/12 00:55:20;;;;;;;25.90;22.48;;;;;;;20.42;99.65;101035.69;3575029;39;20040;-67
2023/09/12 00:57:48;;;;;;;24.23;21.35;;;;;;;20.44;99.41;101050.06;3592351;39;20078;-68
2023/09/12 01:00:14;;;;;;;29.38;22.92;;;;;;;20.42;100.00;101041.16;3591100;39;20059;-68
2023/09/12 01:02:44;;;;;;;26.27;21.77;;;;;;;20.44;100.00;101035.56;3592389;39;20066;-65
2023/09/12 01:05:13;;;;;;;25.90;22.08;;;;;;;20.19;99.90;101007.97;3592575;39;20063;-67
2023/09/12 01:07:41;;;;;;;25.83;20.83;;;;;;;20.42;99.50;101046.63;3581882;39;20068;-67
2023/09/12 01:10:08;;;;;;;24.65;21.83;;;;;;;20.41;99.59;101039.44;3591294;39;20085;-65
2023/09/12 01:12:37;;;;;;;25.13;21.73;;;;;;;20.43;100.00;101042.91;3593062;39;20052;-66
2023/09/12 01:15:08;;;;;;;24.95;21.60;;;;;;;20.39;99.62;101033.25;3591540;39;20043;-64
2023/09/12 01:17:34;;;;;;;24.90;22.08;;;;;;;20.41;100.00;101039.44;3595410;39;20176;-66
2023/09/12 01:20:06;;;;;;;23.92;21.42;;;;;;;20.37;100.00;101038.03;3583265;39;20055;-65
2023/09/12 01:23:00;;;;;;;23.83;20.50;;;;;;;20.25;100.00;101011.97;3594203;39;20065;-66
2023/09/12 01:26:01;;;;;;;27.02;21.42;;;;;;;20.34;99.47;101030.16;3581214;39;20056;-65
2023/09/12 01:28:34;;;;;;;24.67;20.48;;;;;;;20.32;99.99;101029.44;3593407;39;20065;-66
2023/09/12 01:31:02;;;;;;;24.45;20.48;;;;;;;20.30;100.00;101031.47;3595085;39;20055;-65
2023/09/12 01:33:29;;;;;;;25.65;21.58;;;;;;;20.29;100.00;101029.75;3595905;39;20548;-66
2023/09/12 01:35:54;;;;;;;24.40;21.80;;;;;;;20.26;100.00;101025.44;3593235;39;20095;-65
2023/09/12 01:38:22;;;;;;;25.83;21.77;;;;;;;20.23;100.00;101025.75;3591628;39;20110;-66
2023/09/12 01:40:54;;;;;;;24.10;20.77;;;;;;;20.21;99.84;101035.13;3597735;39;20055;-66
2023/09/12 01:43:25;;;;;;;29.63;21.98;;;;;;;20.14;99.04;101024.81;3593282;39;20314;-67
2023/09/12 01:45:56;;;;;;;27.15;22.08;;;;;;;20.14;99.74;101030.28;3594042;39;20052;-66
2023/09/12 01:48:34;;;;;;;25.23;21.75;;;;;;;20.09;99.27;101024.41;3596040;39;20068;-68
2023/09/12 01:51:03;;;;;;;25.42;22.73;;;;;;;20.02;98.74;101034.22;3593936;39;20052;-67
2023/09/12 01:53:32;;;;;;;27.13;23.52;;;;;;;20.02;99.37;101039.66;3594109;39;20208;-69
2023/09/12 01:56:00;;;;;;;25.42;22.73;;;;;;;19.80;99.80;101008.19;3596479;39;20059;-65
2023/09/12 01:58:26;;;;;;;26.13;22.83;;;;;;;19.97;99.11;101036.53;3595492;39;21987;-68
2023/09/12 02:00:52;;;;;;;26.55;23.35;;;;;;;;;;3587344;39;20054;-66
2023/09/12 02:03:17;;;;;;;24.80;22.10;;;;;;;19.93;100.00;101035.13;3597633;39;20063;-67
2023/09/12 02:05:44;;;;;;;28.73;22.23;;;;;;;19.91;100.00;101037.97;3592962;39;20063;-65
2023/09/12 02:08:10;;;;;;;29.25;21.35;;;;;;;19.70;100.00;100997.31;3599096;39;20189;-66
2023/09/12 02:10:35;;;;;;;25.20;21.23;;;;;;;19.94;100.00;101023.19;3594336;39;20414;-67
2023/09/12 02:13:01;;;;;;;27.75;21.00;;;;;;;19.91;100.00;101020.75;3594848;39;20051;-65
2023/09/12 02:15:26;;;;;;;22.90;20.45;;;;;;;19.88;100.00;101021.91;3593188;39;20088;-66
2023/09/12 02:17:52;;;;;;;26.33;21.10;;;;;;;19.88;100.00;101021.06;3584388;39;20413;-66
2023/09/12 02:20:19;;;;;;;25.40;21.00;;;;;;;19.85;100.00;101021.34;3591555;39;20096;-67
2023/09/12 02:22:45;;;;;;;22.23;19.58;;;;;;;19.87;100.00;101027.53;3591670;39;20390;-67
2023/09/12 02:25:10;;;;;;;22.20;19.92;;;;;;;19.63;100.00;101001.63;3592772;39;20100;-68
2023/09/12 02:27:36;;;;;;;23.25;20.75;;;;;;;19.83;100.00;101023.41;3593306;39;20054;-66
2023/09/12 02:30:03;;;;;;;23.38;20.00;;;;;;;19.85;99.57;101027.69;3594156;39;20098;-64
2023/09/12 02:32:29;;;;;;;23.58;19.67;;;;;;;19.84;99.90;101031.41;3592879;39;20461;-67
2023/09/12 02:34:56;;;;;;;22.23;19.80;;;;;;;19.44;99.20;100966.22;3594594;39;20152;-65
2023/09/12 02:37:22;;;;;;;21.98;19.45;;;;;;;19.82;98.43;101038.03;3594593;39;20062;-66
2023/09/12 02:39:48;;;;;;;22.70;19.85;;;;;;;19.79;99.09;101027.41;3593426;39;20052;-65
2023/09/12 02:42:13;;;;;;;22.75;19.48;;;;;;;19.77;98.89;101035.75;3593967;39;20055;-65
2023/09/12 02:44:39;;;;;;;22.35;19.75;;;;;;;19.75;98.76;101026.84;3593959;39;20059;-66
2023/09/12 02:47:05;;;;;;;21.33;18.83;;;;;;;19.74;98.79;101033.31;3593550;39;20105;-65
2023/09/12 02:49:31;;;;;;;23.17;19.08;;;;;;;19.72;98.93;101035.34;3592640;39;20056;-65
2023/09/12 02:51:57;;;;;;;23.08;19.77;;;;;;;19.69;99.71;101033.78;3592427;39;20055;-66
2023/09/12 02:54:22;;;;;;;20.38;18.27;;;;;;;19.68;99.16;101031.19;3584228;39;20052;-65
2023/09/12 02:56:48;;;;;;;22.00;19.60;;;;;;;19.68;99.16;101032.03;3593419;39;20088;-65
2023/09/12 02:59:13;;;;;;;22.10;18.73;;;;;;;19.68;99.30;101034.78;3594566;39;20307;-66
2023/09/12 03:01:39;;;;;;;21.10;18.70;;;;;;;19.64;99.44;101030.63;3594596;39;20134;-66
2023/09/12 03:04:05;;;;;;;20.92;18.67;;;;;;;19.66;99.05;101034.09;3592634;39;20052;-67
2023/09/12 03:06:31;;;;;;;21.50;19.30;;;;;;;19.42;98.47;100998.25;3592611;39;20386;-67
2023/09/12 03:08:56;;;;;;;24.08;19.13;;;;;;;19.58;99.12;101036.66;3594134;39;20092;-67
2023/09/12 03:11:22;;;;;;;24.10;20.33;;;;;;;19.52;98.88;101042.69;3592598;39;20105;-66
2023/09/12 03:13:48;;;;;;;24.52;20.27;;;;;;;19.21;99.48;100996.56;3592936;39;20387;-66
2023/09/12 03:16:14;;;;;;;22.10;19.67;;;;;;;19.45;100.00;101044.28;3592763;39;20073;-66
2023/09/12 03:18:41;;;;;;;25.40;20.50;;;;;;;19.43;100.00;101032.66;3595714;39;20513;-67
2023/09/12 03:21:07;;;;;;;23.05;20.55;;;;;;;19.43;100.00;101029.94;3591212;39;20100;-66
2023/09/12 03:23:33;;;;;;;23.13;20.58;;;;;;;19.43;100.00;101016.31;3594105;39;20055;-67
2023/09/12 03:26:06;;;;;;;24.05;19.88;;;;;;;19.43;100.00;101021.75;3585040;39;20136;-66
2023/09/12 03:28:33;;;;;;;24.27;20.35;;;;;;;19.40;99.77;101011.16;3591925;39;20059;-67
2023/09/12 03:31:13;;;;;;;24.50;20.00;;;;;;;19.20;100.00;100989.41;3591968;39;20121;-67
2023/09/12 03:33:41;;;;;;;26.60;20.33;;;;;;;19.28;99.65;101015.03;3596243;39;20464;-67
2023/09/12 03:36:08;;;;;;;25.63;20.50;;;;;;;19.36;100.00;101026.09;3596684;39;20043;-67
2023/09/12 03:38:34;;;;;;;23.45;20.17;;;;;;;19.33;100.00;101015.47;3595888;39;20141;-66
2023/09/12 03:41:01;;;;;;;21.80;19.45;;;;;;;19.27;100.00;101016.06;3597651;39;20390;-65
2023/09/12 03:43:27;;;;;;;26.45;19.35;;;;;;;19.26;100.00;101020.66;3596343;39;20043;-66
2023/09/12 03:45:53;;;;;;;24.42;21.67;;;;;;;19.25;100.00;101014.34;3600639;39;20120;-65
2023/09/12 03:48:19;;;;;;;25.60;21.38;;;;;;;19.24;100.00;101020.78;3593134;39;20098;-67
2023/09/12 03:50:45;;;;;;;24.58;20.73;;;;;;;19.19;100.00;101009.50;3596386;39;20405;-66
2023/09/12 03:53:14;;;;;;;24.45;20.63;;;;;;;19.25;100.00;101027.97;3597512;39;20132;-66
2023/09/12 03:55:39;;;;;;;24.02;20.25;;;;;;;19.28;100.00;101017.78;3594736;39;20125;-68
2023/09/12 03:58:05;;;;;;;24.48;20.40;;;;;;;19.34;100.00;101022.63;3585006;39;20051;-67
2023/09/12 04:00:31;;;;;;;23.05;20.20;;;;;;;19.35;99.85;101019.78;3595158;39;20071;-67
2023/09/12 04:02:56;;;;;;;22.92;20.42;;;;;;;19.36;100.00;101009.72;3594061;39;20056;-66
2023/09/12 04:05:22;;;;;;;23.25;20.65;;;;;;;19.39;100.00;101009.44;3592354;39;20384;-66
2023/09/12 04:07:47;;;;;;;22.73;20.27;;;;;;;19.41;99.92;101010.13;3592159;39;20055;-66
2023/09/12 04:10:13;;;;;;;23.75;20.65;;;;;;;19.42;99.39;101014.59;3592912;39;20141;-66
2023/09/12 04:12:39;;;;;;;23.23;20.75;;;;;;;19.43;99.63;101006.25;3592724;39;20059;-65
2023/09/12 04:15:06;;;;;;;24.20;21.48;;;;;;;19.45;99.27;101008.84;3592877;39;20065;-63
2023/09/12 04:17:32;;;;;;;25.02;20.98;;;;;;;19.45;99.06;101014.31;3591880;39;20067;-64
2023/09/12 04:19:57;;;;;;;22.67;20.27;;;;;;;19.41;98.72;101013.75;3593420;39;20158;-65
2023/09/12 04:22:23;;;;;;;23.50;20.92;;;;;;;19.44;99.30;101007.09;3591790;39;20536;-64
2023/09/12 04:24:48;;;;;;;23.02;20.30;;;;;;;19.42;98.10;101010.00;3592605;39;20043;-63
2023/09/12 04:27:14;;;;;;;26.48;21.13;;;;;;;19.42;98.56;101004.53;3591306;39;20063;-65
2023/09/12 04:29:40;;;;;;;22.15;19.95;;;;;;;19.43;98.72;101010.84;3591088;39;20039;-64
2023/09/12 04:32:05;;;;;;;23.30;20.25;;;;;;;19.43;98.87;101016.31;3591564;39;20048;-64
2023/09/12 04:34:31;;;;;;;21.63;19.33;;;;;;;19.42;99.19;101022.78;3591634;39;20063;-65
2023/09/12 04:36:57;;;;;;;21.58;19.27;;;;;;;19.41;99.59;101029.22;3591318;39;20113;-64
2023/09/12 04:39:23;;;;;;;22.10;19.80;;;;;;;19.39;98.07;101021.19;3590877;39;20063;-64
2023/09/12 04:41:48;;;;;;;20.55;18.35;;;;;;;19.45;98.90;101020.59;3593469;39;20298;-66
2023/09/12 04:44:14;;;;;;;20.10;17.75;;;;;;;19.47;98.52;101018.59;3594398;39;20046;-67
2023/09/12 04:46:40;;;;;;;20.83;18.25;;;;;;;19.52;98.15;101009.13;3593940;39;20060;-64
2023/09/12 04:49:05;;;;;;;20.25;18.15;;;;;;;19.50;96.31;101017.44;3582405;39;20101;-66
2023/09/12 04:51:31;;;;;;;20.70;18.48;;;;;;;19.27;97.37;100991.53;3592932;39;20056;-65
2023/09/12 04:53:56;;;;;;;20.25;18.15;;;;;;;19.06;96.73;100973.53;3595185;39;20058;-65
2023/09/12 04:56:25;;;;;;;22.17;18.83;;;;;;;19.38;97.86;101024.09;3592007;39;20124;-64
2023/09/12 04:58:51;;;;;;;20.10;17.98;;;;;;;19.34;97.76;101028.09;3593705;39;20377;-65
2023/09/12 05:01:17;;;;;;;20.83;18.63;;;;;;;19.34;97.83;101039.00;3590326;39;20051;-65
2023/09/12 05:03:44;;;;;;;21.13;18.65;;;;;;;19.35;97.71;101032.56;3593503;39;20056;-65
2023/09/12 05:06:10;;;;;;;19.63;17.63;;;;;;;19.37;97.86;101030.53;3595064;39;20067;-66
2023/09/12 05:08:36;;;;;;;19.77;17.65;;;;;;;19.39;97.05;101026.66;3593356;39;20674;-65
2023/09/12 05:11:05;;;;;;;20.95;18.05;;;;;;;19.36;97.03;101031.53;3595090;39;20054;-64
2023/09/12 05:13:31;;;;;;;20.63;18.50;;;;;;;19.25;96.90;101033.44;3594353;39;20415;-65
2023/09/12 05:15:56;;;;;;;23.85;18.73;;;;;;;19.24;97.21;101039.88;3595432;39;20052;-67
2023/09/12 05:18:23;;;;;;;22.33;18.52;;;;;;;19.22;96.59;101035.59;3581350;39;20417;-65
2023/09/12 05:20:49;;;;;;;20.80;18.35;;;;;;;18.75;97.53;100946.47;3591372;39;20310;-66
2023/09/12 05:23:15;;;;;;;21.40;18.90;;;;;;;19.24;97.16;101037.16;3593639;39;20051;-65
2023/09/12 05:25:41;;;;;;;20.52;18.33;;;;;;;19.25;97.64;101022.53;3591818;39;20413;-65
2023/09/12 05:28:07;;;;;;;26.05;19.33;;;;;;;19.09;97.13;100975.91;3586918;39;20087;-65
2023/09/12 05:30:32;;;;;;;24.67;19.35;;;;;;;19.24;96.10;100996.25;3594268;39;20095;-66
2023/09/12 05:32:58;;;;;;;23.65;19.80;;;;;;;19.13;96.90;100974.66;3594203;39;20079;-65
2023/09/12 05:35:24;;;;;;;23.77;19.40;;;;;;;19.25;97.59;101003.44;3585602;39;20062;-66
2023/09/12 05:37:51;;;;;;;25.75;20.83;;;;;;;19.24;98.08;100996.25;3595840;39;20492;-65
2023/09/12 05:40:18;;;;;;;25.27;20.70;;;;;;;18.97;97.95;100960.78;3593779;39;20051;-65
2023/09/12 05:42:44;;;;;;;26.63;20.60;;;;;;;19.16;98.47;101003.47;3593799;39;20087;-65
2023/09/12 05:45:10;;;;;;;23.13;20.15;;;;;;;19.10;98.35;100988.56;3597011;39;20511;-66
2023/09/12 05:47:36;;;;;;;24.25;21.65;;;;;;;19.12;98.17;100997.44;3582862;39;20620;-67
2023/09/12 05:50:05;;;;;;;25.52;20.60;;;;;;;19.03;99.08;100990.16;3592756;39;20317;-64
2023/09/12 05:52:31;;;;;;;23.83;20.65;;;;;;;19.16;98.97;101017.94;3593832;39;20124;-66
2023/09/12 05:54:56;;;;;;;27.55;21.95;;;;;;;19.20;100.00;101019.38;3594038;39;20093;-67
2023/09/12 05:57:22;;;;;;;25.40;21.23;;;;;;;19.19;99.69;101020.38;3595473;39;20094;-67
2023/09/12 05:59:48;;;;;;;26.55;22.50;;;;;;;19.22;99.54;101020.09;3592763;39;20370;-66
2023/09/12 06:02:13;;;;;;;28.05;23.02;;;;;;;19.25;99.37;101017.09;3585049;39;20082;-65
2023/09/12 06:04:39;;;;;;;28.50;22.40;;;;;;;19.29;99.77;101025.81;3594405;39;20287;-66
2023/09/12 06:07:05;;;;;;;28.15;21.88;;;;;;;19.34;99.35;101033.53;3594182;39;20255;-66
2023/09/12 06:09:31;;;;;;;27.27;21.70;;;;;;;19.37;99.40;101033.25;3595700;39;20426;-66
2023/09/12 06:11:56;;;;;;;30.85;23.33;;;;;;;19.37;99.79;101027.81;3598263;39;20059;-66
2023/09/12 06:14:22;;;;;;;28.63;22.88;;;;;;;19.22;99.33;101011.06;3597228;39;20059;-66
2023/09/12 06:16:48;;;;;;;28.40;23.52;;;;;;;19.32;99.98;101024.69;3594792;39;20279;-66
2023/09/12 06:19:14;;;;;;;28.50;23.35;;;;;;;19.35;99.20;101036.13;3593083;39;20059;-65
2023/09/12 06:21:42;;;;;;;27.65;22.92;;;;;;;19.36;99.98;101037.84;3594426;39;20402;-66
2023/09/12 06:24:19;;;;;;;30.60;23.80;;;;;;;19.37;100.00;101027.81;3593163;39;20046;-66
2023/09/12 06:26:45;;;;;;;27.35;23.15;;;;;;;19.41;100.00;101031.94;3597217;39;20068;-65
2023/09/12 06:29:10;;;;;;;26.83;22.10;;;;;;;19.27;100.00;100996.97;3593380;39;20062;-65
2023/09/12 06:31:36;;;;;;;29.33;23.35;;;;;;;19.49;100.00;101038.38;3597744;39;20140;-66
2023/09/12 06:34:02;;;;;;;29.50;24.23;;;;;;;19.53;100.00;101041.66;3592678;39;20105;-66
2023/09/12 06:36:31;;;;;;;26.35;23.08;;;;;;;19.54;99.32;101046.13;3592630;39;20047;-64
2023/09/12 06:38:58;;;;;;;30.80;24.00;;;;;;;19.59;99.53;101038.34;3592908;39;20082;-65
2023/09/12 06:41:25;;;;;;;25.70;22.80;;;;;;;19.42;98.03;101004.53;3595215;39;20062;-65
2023/09/12 06:43:51;;;;;;;28.08;23.15;;;;;;;19.63;98.79;101038.91;3593679;39;20053;-65
2023/09/12 06:46:17;;;;;;;26.55;21.58;;;;;;;19.63;98.24;101045.25;3594472;39;21128;-65
2023/09/12 06:48:44;;;;;;;26.75;23.08;;;;;;;19.71;98.42;101059.03;3594743;39;20059;-65
2023/09/12 06:51:11;;;;;;;28.13;22.05;;;;;;;19.74;98.38;101062.47;3592052;39;20055;-65
2023/09/12 06:53:39;;;;;;;27.50;22.65;;;;;;;19.78;98.81;101050.25;3593548;39;20051;-65
2023/09/12 06:56:06;;;;;;;25.30;21.83;;;;;;;19.79;98.03;101057.41;3585177;39;20055;-65
2023/09/12 06:58:32;;;;;;;26.95;23.27;;;;;;;19.77;97.62;101057.56;3592570;39;20050;-66
2023/09/12 07:01:06;;;;;;;26.88;23.40;;;;;;;19.80;97.41;101061.88;3595835;39;20054;-66
2023/09/12 07:03:34;;;;;;;30.25;24.15;;;;;;;19.83;98.18;101046.06;3591626;39;20052;-66
2023/09/12 07:06:01;;;;;;;30.35;24.90;;;;;;;19.80;97.41;101040.06;3592579;39;20055;-67
2023/09/12 07:08:29;;;;;;;29.75;24.00;;;;;;;19.89;96.73;101044.63;3595935;39;20256;-65
2023/09/12 07:10:56;;;;;;;31.15;24.05;;;;;;;19.90;96.52;101052.63;3593483;39;20060;-65
2023/09/12 07:13:23;;;;;;;31.95;23.45;;;;;;;;;;3595387;39;20290;-66
2023/09/12 07:15:50;;;;;;;28.30;22.42;;;;;;;20.05;96.66;101057.63;3593208;39;20071;-66
2023/09/12 07:18:16;;;;;;;26.75;22.30;;;;;;;20.11;95.80;101046.94;3597467;39;20056;-67
2023/09/12 07:20:42;;;;;;;26.80;21.30;;;;;;;20.16;95.00;101055.53;3595376;39;20114;-66
2023/09/12 07:23:08;;;;;;;24.25;21.58;;;;;;;20.18;93.54;101067.16;3595258;39;20043;-66
2023/09/12 07:25:41;;;;;;;27.13;22.20;;;;;;;20.21;95.14;101068.75;3594347;39;20068;-65
2023/09/12 07:28:10;;;;;;;24.10;21.30;;;;;;;20.23;94.64;101063.97;3592086;39;20060;-66
2023/09/12 07:30:37;;;;;;;24.85;21.27;;;;;;;20.28;94.47;101066.25;3592754;39;20055;-65
2023/09/12 07:33:07;;;;;;;26.45;21.38;;;;;;;20.30;94.65;101069.72;3592326;39;20052;-67
2023/09/12 07:35:32;;;;;;;23.13;20.63;;;;;;;20.32;94.35;101075.84;3592572;39;20058;-66
2023/09/12 07:37:59;;;;;;;26.08;21.33;;;;;;;20.27;95.30;101048.16;3593895;39;20119;-66
2023/09/12 07:40:25;;;;;;;27.35;21.67;;;;;;;20.46;94.80;101063.56;3594173;39;20125;-66
2023/09/12 07:42:50;;;;;;;22.60;19.45;;;;;;;20.53;94.74;101065.56;3593197;39;20064;-67
2023/09/12 07:45:16;;;;;;;22.50;19.20;;;;;;;20.69;93.62;101059.41;3593120;39;20067;-67
2023/09/12 07:47:42;;;;;;;24.20;19.48;;;;;;;20.89;95.01;101059.25;3592133;39;20090;-66
2023/09/12 07:50:07;;;;;;;22.58;20.13;;;;;;;21.03;93.00;101058.72;3595046;39;20428;-66
2023/09/12 07:52:34;;;;;;;22.13;19.75;;;;;;;21.18;93.16;101061.72;3591936;39;20066;-66
2023/09/12 07:55:02;;;;;;;24.08;20.48;;;;;;;21.24;92.96;101040.09;3595104;39;20051;-66
2023/09/12 07:57:29;;;;;;;23.38;19.65;;;;;;;21.51;91.27;101062.91;3593801;39;21816;-65
2023/09/12 07:59:57;;;;;;;23.55;18.27;;;;;;;21.68;88.91;101063.84;3594995;39;20082;-68
2023/09/12 08:02:23;;;;;;;20.80;18.30;;;;;;;21.84;88.27;101061.19;3596139;39;20391;-69
2023/09/12 08:04:53;;;;;;;20.40;16.88;;;;;;;21.99;84.46;101070.53;3594113;39;20495;-66
2023/09/12 08:07:19;;;;;;;20.63;15.40;;;;;;;22.18;84.25;101068.59;3594920;39;20043;-68
2023/09/12 08:09:55;;;;;;;18.75;13.77;;;;;;;22.30;82.14;101080.97;3594728;39;20059;-67
2023/09/12 08:12:23;;;;;;;15.10;12.77;;;;;;;22.41;78.90;101101.72;3593410;39;20060;-68
2023/09/12 08:14:49;;;;;;;14.10;12.70;;;;;;;22.45;79.74;101101.25;3592711;39;20085;-67
2023/09/12 08:17:15;;;;;;;15.52;13.90;;;;;;;22.51;78.54;101101.59;3592679;39;20051;-69
2023/09/12 08:19:41;;;;;;;16.88;12.10;;;;;;;22.40;79.12;101083.59;3594603;39;20047;-68
2023/09/12 08:22:10;;;;;;;15.65;13.88;;;;;;;22.35;79.83;101075.84;3594748;39;20051;-69
2023/09/12 08:24:36;;;;;;;16.65;13.55;;;;;;;22.41;79.12;101077.91;3594073;39;20140;-69
2023/09/12 08:27:03;;;;;;;14.95;13.13;;;;;;;22.58;80.56;101091.66;3592799;39;20043;-67
2023/09/12 08:29:31;;;;;;;14.68;13.18;;;;;;;22.73;79.67;101119.28;3592681;39;20132;-67
2023/09/12 08:31:56;;;;;;;15.88;13.38;;;;;;;22.74;79.13;101113.66;3593835;39;20066;-69
2023/09/12 08:34:22;;;;;;;17.15;13.77;;;;;;;22.75;79.41;101122.75;3594721;39;20363;-67
2023/09/12 08:36:48;;;;;;;15.75;12.55;;;;;;;22.74;80.19;101134.72;3586761;39;20074;-68
2023/09/12 08:39:24;;;;;;;12.30;10.65;;;;;;;22.62;78.41;101126.81;3594484;39;20054;-68
2023/09/12 08:41:51;;;;;;;15.38;12.05;;;;;;;22.61;79.18;101129.69;3593893;39;20093;-67
2023/09/12 08:44:18;;;;;;;13.02;10.93;;;;;;;22.57;80.60;101129.19;3594657;39;20153;-68
2023/09/12 08:46:45;;;;;;;13.00;11.13;;;;;;;22.61;81.53;101127.84;3587014;39;20064;-68
2023/09/12 08:49:11;;;;;;;12.52;10.63;;;;;;;22.74;82.55;101124.63;3595647;39;20072;-68
2023/09/12 08:51:41;;;;;;;12.45;11.15;;;;;;;22.93;82.27;101124.38;3592873;39;20087;-66
2023/09/12 08:54:09;;;;;;;10.20;8.82;;;;;;;23.12;78.74;101133.28;3593716;39;20079;-68
2023/09/12 08:56:41;;;;;;;11.00;8.63;;;;;;;23.43;78.31;101135.38;3592448;39;20047;-68
2023/09/12 08:59:07;;;;;;;9.35;6.80;;;;;;;23.63;73.98;101137.59;3594330;39;20437;-68
2023/09/12 09:01:35;;;;;;;7.35;6.00;;;;;;;23.68;71.57;101138.97;3593057;39;20052;-68
2023/09/12 09:04:03;;;;;;;7.13;6.43;;;;;;;23.64;71.67;101150.28;3592617;39;20105;-67
2023/09/12 09:06:39;;;;;;;8.20;7.40;;;;;;;23.71;72.57;101149.63;3587972;39;20048;-67
2023/09/12 09:09:07;;;;;;;10.18;8.88;;;;;;;23.75;73.57;101149.09;3594498;39;20059;-67
2023/09/12 09:11:34;;;;;;;9.73;8.15;;;;;;;23.87;75.72;101130.38;3593840;39;20085;-67
2023/09/12 09:14:02;;;;;;;10.63;9.52;;;;;;;24.15;74.47;101127.25;3591660;39;20051;-67
2023/09/12 09:16:28;;;;;;;14.40;11.23;;;;;;;24.39;71.57;101121.66;3592027;39;20047;-68
2023/09/12 09:18:54;;;;;;;15.73;11.80;;;;;;;24.61;70.00;101103.56;3594148;39;20055;-68
2023/09/12 09:21:25;;;;;;;13.80;12.23;;;;;;;24.94;70.17;101108.84;3591516;39;20824;-67
2023/09/12 09:23:53;;;;;;;17.42;14.77;;;;;;;25.24;68.88;101110.72;3592706;39;20051;-68
2023/09/12 09:26:19;;;;;;;17.02;14.52;;;;;;;25.43;68.13;101103.84;3594205;39;20052;-68
2023/09/12 09:28:46;;;;;;;18.95;15.45;;;;;;;25.55;66.95;101101.50;3591541;39;20064;-68
2023/09/12 09:31:14;;;;;;;18.42;13.65;;;;;;;25.68;66.95;101107.22;3592441;39;20043;-68
2023/09/12 09:33:40;;;;;;;19.33;15.90;;;;;;;25.78;68.35;101103.34;3592321;39;20092;-68
2023/09/12 09:36:07;;;;;;;19.35;15.57;;;;;;;25.83;65.72;101111.94;3593853;39;20084;-68
2023/09/12 09:38:36;;;;;;;18.98;16.10;;;;;;;25.88;65.10;101112.22;3592513;39;20054;-67
2023/09/12 09:41:09;;;;;;;19.55;16.33;;;;;;;26.07;65.86;101111.69;3592533;39;20132;-68
2023/09/12 09:43:36;;;;;;;22.00;16.85;;;;;;;26.16;63.12;101110.56;3592870;39;20051;-66
2023/09/12 09:46:02;;;;;;;24.13;17.40;;;;;;;26.26;63.57;101110.28;3593394;39;20128;-69
2023/09/12 09:48:30;;;;;;;20.30;17.00;;;;;;;26.45;64.94;101103.31;3595198;39;20570;-67
2023/09/12 09:51:03;;;;;;;21.40;18.17;;;;;;;26.58;63.19;101100.75;3593720;39;20346;-68
2023/09/12 09:53:32;;;;;;;21.33;17.85;;;;;;;26.63;60.04;101101.00;3592038;39;20329;-68
2023/09/12 09:56:14;;;;;;;17.95;15.73;;;;;;;26.75;61.42;101108.78;3592438;39;20309;-64
2023/09/12 09:58:54;;;;;;;19.38;15.57;;;;;;;26.90;60.74;101112.38;3592411;39;20092;-67
2023/09/12 10:01:29;;;;;;;18.25;15.00;;;;;;;26.91;60.13;101103.03;3591608;39;20453;-66
2023/09/12 10:04:00;;;;;;;21.55;15.88;;;;;;;26.88;59.46;101106.19;3593130;39;20413;-66
2023/09/12 10:06:29;;;;;;;20.80;15.57;;;;;;;27.03;61.75;101114.41;3594871;39;20106;-66
2023/09/12 10:08:57;;;;;;;18.73;14.50;;;;;;;27.16;59.50;101108.22;3596316;39;20124;-67
2023/09/12 10:11:28;;;;;;;20.70;15.07;;;;;;;27.30;59.51;101093.47;3592824;39;20044;-66
2023/09/12 10:13:59;;;;;;;18.13;14.05;;;;;;;27.52;59.02;101097.91;3586864;39;20080;-67
2023/09/12 10:16:38;;;;;;;16.50;12.77;;;;;;;27.75;58.08;101094.94;3592193;39;20051;-66
2023/09/12 10:19:38;;;;;;;18.58;13.45;;;;;;;27.86;56.27;101100.97;3594146;39;20058;-67
2023/09/12 10:22:17;;;;;;;16.25;13.23;;;;;;;27.75;57.16;101094.94;3592752;39;20060;-66
2023/09/12 10:24:45;;;;;;;16.70;13.43;;;;;;;27.69;58.16;101094.88;3593532;39;20075;-66
2023/09/12 10:27:14;;;;;;;19.48;13.82;;;;;;;27.53;57.68;101098.78;3594173;39;20111;-67
2023/09/12 10:29:40;;;;;;;20.83;15.32;;;;;;;27.48;57.77;101090.25;3594608;39;20064;-67
2023/09/12 10:32:05;;;;;;;19.38;14.27;;;;;;;27.58;57.82;101090.75;3594106;39;20052;-67
2023/09/12 10:34:34;;;;;;;19.30;14.80;;;;;;;27.60;58.04;101090.56;3592947;39;20424;-66
2023/09/12 10:37:04;;;;;;;19.13;14.48;;;;;;;27.58;57.67;101081.59;3593441;39;20048;-69
2023/09/12 10:39:32;;;;;;;20.25;15.48;;;;;;;27.57;57.75;101082.66;3593223;39;20062;-66
2023/09/12 10:41:59;;;;;;;20.30;16.42;;;;;;;27.45;59.72;101082.34;3593927;39;20379;-66
2023/09/12 10:44:26;;;;;;;17.23;14.63;;;;;;;27.20;58.85;101035.84;3592444;39;20047;-66
2023/09/12 10:46:54;;;;;;;19.35;15.60;;;;;;;27.73;56.59;101091.50;3593441;39;20322;-67
2023/09/12 10:49:20;;;;;;;20.70;16.23;;;;;;;27.84;58.51;101092.88;3595143;39;20056;-67
2023/09/12 10:51:47;;;;;;;19.85;14.38;;;;;;;27.90;57.89;101092.06;3584778;39;20139;-68
2023/09/12 10:54:25;;;;;;;17.50;13.80;;;;;;;27.98;55.81;101091.91;3592754;39;20060;-68
2023/09/12 10:57:13;;;;;;;18.17;14.13;;;;;;;28.09;55.95;101101.53;3592174;39;20347;-66
2023/09/12 11:00:04;;;;;;;17.17;13.75;;;;;;;28.11;56.57;101101.34;3592915;39;20054;-68
2023/09/12 11:02:36;;;;;;;20.27;15.25;;;;;;;28.01;57.41;101101.72;3593359;39;20046;-67
2023/09/12 11:05:33;;;;;;;19.75;16.05;;;;;;;28.19;57.04;101096.50;3598619;39;20067;-67
2023/09/12 11:08:01;;;;;;;17.63;13.23;;;;;;;28.26;54.82;101091.03;3588410;40;20051;-66
2023/09/12 11:10:28;;;;;;;15.00;11.05;;;;;;;28.08;53.81;101085.19;3599447;39;20055;-67
2023/09/12 11:12:58;;;;;;;14.38;11.85;;;;;;;27.84;54.56;101079.06;3594027;39;20139;-67